sensor_id;sensor_type;location;lat;lon;timestamp;temperature;humidity
16511;DHT22;8368;48.772;8.754;2024-01-10T00:01:32;-6.10;99.90
16511;DHT22;8368;48.772;8.754;2024-01-10T00:03:57;-6.00;99.90
16511;DHT22;8368;48.772;8.754;2024-01-10T00:06:23;-6.00;99.90
16511;DHT22;8368;48.772;8.754;2024-01-10T00:08:49;-6.00;99.90
16511;DHT22;8368;48.772;8.754;2024-01-10T00:11:15;-5.90;99.90
16511;DHT22;8368;48.772;8.754;2024-01-10T00:13:41;-5.90;99.90
16511;DHT22;8368;48.772;8.754;2024-01-10T00:16:06;-5.90;99.90
16511;DHT22;8368;48.772;8.754;2024-01-10T00:18:33;-5.90;99.90
16511;DHT22;8368;48.772;8.754;2024-01-10T00:20:58;-5.80;99.90
16511;DHT22;8368;48.772;8.754;2024-01-10T00:23:24;-5.80;99.90
16511;DHT22;8368;48.772;8.754;2024-01-10T00:25:50;-5.80;99.90
16511;DHT22;8368;48.772;8.754;2024-01-10T00:28:15;-5.70;99.90
16511;DHT22;8368;48.772;8.754;2024-01-10T00:30:45;-5.70;99.90
16511;DHT22;8368;48.772;8.754;2024-01-10T00:33:13;-5.80;99.90
16511;DHT22;8368;48.772;8.754;2024-01-10T00:35:39;-5.80;99.90
16511;DHT22;8368;48.772;8.754;2024-01-10T00:38:05;-5.80;99.90
16511;DHT22;8368;48.772;8.754;2024-01-10T00:40:30;-5.70;99.90
16511;DHT22;8368;48.772;8.754;2024-01-10T00:42:56;-5.70;99.90
16511;DHT22;8368;48.772;8.754;2024-01-10T00:45:21;-5.70;99.90
16511;DHT22;8368;48.772;8.754;2024-01-10T00:47:50;-5.80;99.90
16511;DHT22;8368;48.772;8.754;2024-01-10T00:50:16;-5.70;99.90
16511;DHT22;8368;48.772;8.754;2024-01-10T00:52:43;-5.60;99.90
16511;DHT22;8368;48.772;8.754;2024-01-10T00:55:08;-5.60;99.90
16511;DHT22;8368;48.772;8.754;2024-01-10T00:57:34;-5.70;99.90
16511;DHT22;8368;48.772;8.754;2024-01-10T01:00:00;-5.70;99.90
16511;DHT22;8368;48.772;8.754;2024-01-10T01:02:26;-5.60;99.90
16511;DHT22;8368;48.772;8.754;2024-01-10T01:04:52;-5.60;99.90
16511;DHT22;8368;48.772;8.754;2024-01-10T01:07:17;-5.50;99.90
16511;DHT22;8368;48.772;8.754;2024-01-10T01:09:44;-5.60;99.90
16511;DHT22;8368;48.772;8.754;2024-01-10T01:12:09;-5.60;99.90
16511;DHT22;8368;48.772;8.754;2024-01-10T01:14:35;-5.50;99.90
16511;DHT22;8368;48.772;8.754;2024-01-10T01:17:00;-5.50;99.90
16511;DHT22;8368;48.772;8.754;2024-01-10T01:19:26;-5.40;99.90
16511;DHT22;8368;48.772;8.754;2024-01-10T01:21:51;-5.40;99.90
16511;DHT22;8368;48.772;8.754;2024-01-10T01:24:17;-5.40;99.90
16511;DHT22;8368;48.772;8.754;2024-01-10T01:26:42;-5.40;99.90
16511;DHT22;8368;48.772;8.754;2024-01-10T01:29:09;-5.30;99.90
16511;DHT22;8368;48.772;8.754;2024-01-10T01:31:34;-5.30;99.90
16511;DHT22;8368;48.772;8.754;2024-01-10T01:34:00;-5.30;99.90
16511;DHT22;8368;48.772;8.754;2024-01-10T01:36:25;-5.20;99.90
16511;DHT22;8368;48.772;8.754;2024-01-10T01:38:51;-5.20;99.90
16511;DHT22;8368;48.772;8.754;2024-01-10T01:41:16;-5.20;99.90
16511;DHT22;8368;48.772;8.754;2024-01-10T01:43:43;-5.10;99.90
16511;DHT22;8368;48.772;8.754;2024-01-10T01:46:09;-5.10;99.90
16511;DHT22;8368;48.772;8.754;2024-01-10T01:48:35;-5.00;99.90
16511;DHT22;8368;48.772;8.754;2024-01-10T01:51:04;-5.00;99.90
16511;DHT22;8368;48.772;8.754;2024-01-10T01:53:31;-5.00;99.90
16511;DHT22;8368;48.772;8.754;2024-01-10T01:55:57;-4.90;99.90
16511;DHT22;8368;48.772;8.754;2024-01-10T01:58:25;-4.90;99.90
16511;DHT22;8368;48.772;8.754;2024-01-10T02:00:52;-4.90;99.90
16511;DHT22;8368;48.772;8.754;2024-01-10T02:03:17;-4.90;99.90
16511;DHT22;8368;48.772;8.754;2024-01-10T02:05:43;-4.80;99.90
16511;DHT22;8368;48.772;8.754;2024-01-10T02:08:08;-4.90;99.90
16511;DHT22;8368;48.772;8.754;2024-01-10T02:10:34;-4.80;99.90
16511;DHT22;8368;48.772;8.754;2024-01-10T02:13:01;-4.80;99.90
16511;DHT22;8368;48.772;8.754;2024-01-10T02:15:26;-4.70;99.90
16511;DHT22;8368;48.772;8.754;2024-01-10T02:17:52;-4.60;99.90
16511;DHT22;8368;48.772;8.754;2024-01-10T02:20:18;-4.60;99.90
16511;DHT22;8368;48.772;8.754;2024-01-10T02:22:44;-4.60;99.90
16511;DHT22;8368;48.772;8.754;2024-01-10T02:25:10;-4.60;99.90
16511;DHT22;8368;48.772;8.754;2024-01-10T02:27:37;-4.60;99.90
16511;DHT22;8368;48.772;8.754;2024-01-10T02:30:03;-4.60;99.90
16511;DHT22;8368;48.772;8.754;2024-01-10T02:32:30;-4.60;99.90
16511;DHT22;8368;48.772;8.754;2024-01-10T02:34:55;-4.70;99.90
16511;DHT22;8368;48.772;8.754;2024-01-10T02:37:21;-4.70;99.90
16511;DHT22;8368;48.772;8.754;2024-01-10T02:39:46;-4.70;99.90
16511;DHT22;8368;48.772;8.754;2024-01-10T02:42:12;-4.80;99.90
16511;DHT22;8368;48.772;8.754;2024-01-10T02:44:37;-4.80;99.90
16511;DHT22;8368;48.772;8.754;2024-01-10T02:47:03;-4.80;99.90
16511;DHT22;8368;48.772;8.754;2024-01-10T02:49:29;-4.70;99.90
16511;DHT22;8368;48.772;8.754;2024-01-10T02:51:54;-4.70;99.90
16511;DHT22;8368;48.772;8.754;2024-01-10T02:54:20;-4.80;99.90
16511;DHT22;8368;48.772;8.754;2024-01-10T02:56:45;-4.80;99.90
16511;DHT22;8368;48.772;8.754;2024-01-10T02:59:11;-4.80;99.90
16511;DHT22;8368;48.772;8.754;2024-01-10T03:01:36;-4.80;99.90
16511;DHT22;8368;48.772;8.754;2024-01-10T03:04:02;-4.80;99.90
16511;DHT22;8368;48.772;8.754;2024-01-10T03:06:27;-4.80;99.90
16511;DHT22;8368;48.772;8.754;2024-01-10T03:08:54;-4.70;99.90
16511;DHT22;8368;48.772;8.754;2024-01-10T03:11:20;-4.70;99.90
16511;DHT22;8368;48.772;8.754;2024-01-10T03:13:47;-4.80;99.90
16511;DHT22;8368;48.772;8.754;2024-01-10T03:16:13;-4.70;99.90
16511;DHT22;8368;48.772;8.754;2024-01-10T03:18:38;-4.70;99.90
16511;DHT22;8368;48.772;8.754;2024-01-10T03:21:04;-4.60;99.90
16511;DHT22;8368;48.772;8.754;2024-01-10T03:23:30;-4.60;99.90
16511;DHT22;8368;48.772;8.754;2024-01-10T03:25:58;-4.60;99.90
16511;DHT22;8368;48.772;8.754;2024-01-10T03:28:24;-4.50;99.90
16511;DHT22;8368;48.772;8.754;2024-01-10T03:30:49;-4.40;99.90
16511;DHT22;8368;48.772;8.754;2024-01-10T03:33:15;-4.40;99.90
16511;DHT22;8368;48.772;8.754;2024-01-10T03:35:41;-4.50;99.90
16511;DHT22;8368;48.772;8.754;2024-01-10T03:38:07;-4.50;99.90
16511;DHT22;8368;48.772;8.754;2024-01-10T03:40:32;-4.40;99.90
16511;DHT22;8368;48.772;8.754;2024-01-10T03:42:58;-4.50;99.90
16511;DHT22;8368;48.772;8.754;2024-01-10T03:45:23;-4.40;99.90
16511;DHT22;8368;48.772;8.754;2024-01-10T03:47:49;-4.40;99.90
16511;DHT22;8368;48.772;8.754;2024-01-10T03:50:21;-4.40;99.90
16511;DHT22;8368;48.772;8.754;2024-01-10T03:52:46;-4.40;99.90
16511;DHT22;8368;48.772;8.754;2024-01-10T03:55:13;-4.30;99.90
16511;DHT22;8368;48.772;8.754;2024-01-10T03:57:39;-4.40;99.90
16511;DHT22;8368;48.772;8.754;2024-01-10T04:00:05;-4.30;99.90
16511;DHT22;8368;48.772;8.754;2024-01-10T04:02:32;-4.30;99.90
16511;DHT22;8368;48.772;8.754;2024-01-10T04:04:58;-4.40;99.90
16511;DHT22;8368;48.772;8.754;2024-01-10T04:07:23;-4.40;99.90
16511;DHT22;8368;48.772;8.754;2024-01-10T04:09:49;-4.40;99.90
16511;DHT22;8368;48.772;8.754;2024-01-10T04:12:14;-4.40;99.90
16511;DHT22;8368;48.772;8.754;2024-01-10T04:14:40;-4.40;99.90
16511;DHT22;8368;48.772;8.754;2024-01-10T04:17:05;-4.40;99.90
16511;DHT22;8368;48.772;8.754;2024-01-10T04:19:32;-4.40;99.90
16511;DHT22;8368;48.772;8.754;2024-01-10T04:21:58;-4.50;99.90
16511;DHT22;8368;48.772;8.754;2024-01-10T04:24:24;-4.50;99.90
16511;DHT22;8368;48.772;8.754;2024-01-10T04:26:50;-4.50;99.90
16511;DHT22;8368;48.772;8.754;2024-01-10T04:29:16;-4.50;99.90
16511;DHT22;8368;48.772;8.754;2024-01-10T04:31:41;-4.50;99.90
16511;DHT22;8368;48.772;8.754;2024-01-10T04:34:07;-4.50;99.90
16511;DHT22;8368;48.772;8.754;2024-01-10T04:36:32;-4.50;99.90
16511;DHT22;8368;48.772;8.754;2024-01-10T04:38:58;-4.50;99.90
16511;DHT22;8368;48.772;8.754;2024-01-10T04:41:23;-4.50;99.90
16511;DHT22;8368;48.772;8.754;2024-01-10T04:43:49;-4.50;99.90
16511;DHT22;8368;48.772;8.754;2024-01-10T04:46:15;-4.40;99.90
16511;DHT22;8368;48.772;8.754;2024-01-10T04:48:40;-4.40;99.90
16511;DHT22;8368;48.772;8.754;2024-01-10T04:51:06;-4.40;99.90
16511;DHT22;8368;48.772;8.754;2024-01-10T04:53:32;-4.40;99.90
16511;DHT22;8368;48.772;8.754;2024-01-10T04:55:57;-4.50;99.90
16511;DHT22;8368;48.772;8.754;2024-01-10T04:58:23;-4.50;99.90
16511;DHT22;8368;48.772;8.754;2024-01-10T05:00:48;-4.50;99.90
16511;DHT22;8368;48.772;8.754;2024-01-10T05:03:14;-4.50;99.90
16511;DHT22;8368;48.772;8.754;2024-01-10T05:05:41;-4.40;99.90
16511;DHT22;8368;48.772;8.754;2024-01-10T05:08:06;-4.50;99.90
16511;DHT22;8368;48.772;8.754;2024-01-10T05:10:32;-4.50;99.90
16511;DHT22;8368;48.772;8.754;2024-01-10T05:12:57;-4.50;99.90
16511;DHT22;8368;48.772;8.754;2024-01-10T05:15:23;-4.50;99.90
16511;DHT22;8368;48.772;8.754;2024-01-10T05:17:48;-4.50;99.90
16511;DHT22;8368;48.772;8.754;2024-01-10T05:20:14;-4.60;99.90
16511;DHT22;8368;48.772;8.754;2024-01-10T05:22:40;-4.60;99.90
16511;DHT22;8368;48.772;8.754;2024-01-10T05:25:06;-4.70;99.90
16511;DHT22;8368;48.772;8.754;2024-01-10T05:27:32;-4.70;99.90
16511;DHT22;8368;48.772;8.754;2024-01-10T05:29:58;-4.70;99.90
16511;DHT22;8368;48.772;8.754;2024-01-10T05:32:25;-4.80;99.90
16511;DHT22;8368;48.772;8.754;2024-01-10T05:34:51;-4.80;99.90
16511;DHT22;8368;48.772;8.754;2024-01-10T05:37:17;-4.90;99.90
16511;DHT22;8368;48.772;8.754;2024-01-10T05:39:42;-4.90;99.90
16511;DHT22;8368;48.772;8.754;2024-01-10T05:42:08;-5.00;99.90
16511;DHT22;8368;48.772;8.754;2024-01-10T05:44:33;-5.10;99.90
16511;DHT22;8368;48.772;8.754;2024-01-10T05:46:59;-5.10;99.90
16511;DHT22;8368;48.772;8.754;2024-01-10T05:49:25;-5.10;99.90
16511;DHT22;8368;48.772;8.754;2024-01-10T05:51:51;-5.20;99.90
16511;DHT22;8368;48.772;8.754;2024-01-10T05:54:16;-5.20;99.90
16511;DHT22;8368;48.772;8.754;2024-01-10T05:56:43;-5.30;99.90
16511;DHT22;8368;48.772;8.754;2024-01-10T05:59:09;-5.20;99.90
16511;DHT22;8368;48.772;8.754;2024-01-10T06:01:36;-5.30;99.90
16511;DHT22;8368;48.772;8.754;2024-01-10T06:04:04;-5.30;99.90
16511;DHT22;8368;48.772;8.754;2024-01-10T06:06:29;-5.40;99.90
16511;DHT22;8368;48.772;8.754;2024-01-10T06:08:55;-5.40;99.90
16511;DHT22;8368;48.772;8.754;2024-01-10T06:11:20;-5.50;99.90
16511;DHT22;8368;48.772;8.754;2024-01-10T06:13:46;-5.60;99.90
16511;DHT22;8368;48.772;8.754;2024-01-10T06:16:11;-5.70;99.90
16511;DHT22;8368;48.772;8.754;2024-01-10T06:18:38;-5.80;99.90
16511;DHT22;8368;48.772;8.754;2024-01-10T06:21:04;-5.80;99.90
16511;DHT22;8368;48.772;8.754;2024-01-10T06:23:30;-5.80;99.90
16511;DHT22;8368;48.772;8.754;2024-01-10T06:25:55;-5.80;99.90
16511;DHT22;8368;48.772;8.754;2024-01-10T06:28:21;-5.80;99.90
16511;DHT22;8368;48.772;8.754;2024-01-10T06:30:47;-5.90;99.90
16511;DHT22;8368;48.772;8.754;2024-01-10T06:33:12;-5.90;99.90
16511;DHT22;8368;48.772;8.754;2024-01-10T06:35:39;-6.00;99.90
16511;DHT22;8368;48.772;8.754;2024-01-10T06:38:04;-6.00;99.90
16511;DHT22;8368;48.772;8.754;2024-01-10T06:40:30;-6.10;99.90
16511;DHT22;8368;48.772;8.754;2024-01-10T06:42:55;-6.10;99.90
16511;DHT22;8368;48.772;8.754;2024-01-10T06:45:22;-6.00;99.90
16511;DHT22;8368;48.772;8.754;2024-01-10T06:47:47;-6.10;99.90
16511;DHT22;8368;48.772;8.754;2024-01-10T06:50:13;-6.20;99.90
16511;DHT22;8368;48.772;8.754;2024-01-10T06:52:38;-6.20;99.90
16511;DHT22;8368;48.772;8.754;2024-01-10T06:55:04;-6.30;99.90
16511;DHT22;8368;48.772;8.754;2024-01-10T06:57:30;-6.40;99.90
16511;DHT22;8368;48.772;8.754;2024-01-10T06:59:56;-6.40;99.90
16511;DHT22;8368;48.772;8.754;2024-01-10T07:02:23;-6.40;99.90
16511;DHT22;8368;48.772;8.754;2024-01-10T07:04:48;-6.40;99.90
16511;DHT22;8368;48.772;8.754;2024-01-10T07:07:14;-6.40;99.90
16511;DHT22;8368;48.772;8.754;2024-01-10T07:09:40;-6.40;99.90
16511;DHT22;8368;48.772;8.754;2024-01-10T07:12:07;-6.40;99.90
16511;DHT22;8368;48.772;8.754;2024-01-10T07:14:32;-6.40;99.90
16511;DHT22;8368;48.772;8.754;2024-01-10T07:16:58;-6.40;99.90
16511;DHT22;8368;48.772;8.754;2024-01-10T07:19:23;-6.40;99.90
16511;DHT22;8368;48.772;8.754;2024-01-10T07:21:49;-6.40;99.90
16511;DHT22;8368;48.772;8.754;2024-01-10T07:24:15;-6.30;99.90
16511;DHT22;8368;48.772;8.754;2024-01-10T07:26:41;-6.40;99.90
16511;DHT22;8368;48.772;8.754;2024-01-10T07:29:06;-6.40;99.90
16511;DHT22;8368;48.772;8.754;2024-01-10T07:31:35;-6.40;99.90
16511;DHT22;8368;48.772;8.754;2024-01-10T07:34:00;-6.50;99.90
16511;DHT22;8368;48.772;8.754;2024-01-10T07:36:26;-6.50;99.90
16511;DHT22;8368;48.772;8.754;2024-01-10T07:38:52;-6.50;99.90
16511;DHT22;8368;48.772;8.754;2024-01-10T07:41:18;-6.50;99.90
16511;DHT22;8368;48.772;8.754;2024-01-10T07:43:44;-6.40;99.90
16511;DHT22;8368;48.772;8.754;2024-01-10T07:46:09;-6.40;99.90
16511;DHT22;8368;48.772;8.754;2024-01-10T07:48:35;-6.40;99.90
16511;DHT22;8368;48.772;8.754;2024-01-10T07:51:01;-6.40;99.90
16511;DHT22;8368;48.772;8.754;2024-01-10T07:53:30;-6.40;99.90
16511;DHT22;8368;48.772;8.754;2024-01-10T07:55:55;-6.30;99.90
16511;DHT22;8368;48.772;8.754;2024-01-10T07:58:22;-6.30;99.90
16511;DHT22;8368;48.772;8.754;2024-01-10T08:00:47;-6.20;99.90
16511;DHT22;8368;48.772;8.754;2024-01-10T08:03:13;-6.10;99.90
16511;DHT22;8368;48.772;8.754;2024-01-10T08:05:38;-6.00;99.90
16511;DHT22;8368;48.772;8.754;2024-01-10T08:08:04;-6.00;99.90
16511;DHT22;8368;48.772;8.754;2024-01-10T08:10:30;-5.90;99.90
16511;DHT22;8368;48.772;8.754;2024-01-10T08:12:55;-5.80;99.90
16511;DHT22;8368;48.772;8.754;2024-01-10T08:15:22;-5.80;99.90
16511;DHT22;8368;48.772;8.754;2024-01-10T08:17:48;-5.70;99.90
16511;DHT22;8368;48.772;8.754;2024-01-10T08:20:13;-5.60;99.90
16511;DHT22;8368;48.772;8.754;2024-01-10T08:22:43;-5.40;99.90
16511;DHT22;8368;48.772;8.754;2024-01-10T08:25:10;-5.40;99.90
16511;DHT22;8368;48.772;8.754;2024-01-10T08:27:35;-5.40;99.90
16511;DHT22;8368;48.772;8.754;2024-01-10T08:30:01;-5.40;99.90
16511;DHT22;8368;48.772;8.754;2024-01-10T08:32:30;-5.30;99.90
16511;DHT22;8368;48.772;8.754;2024-01-10T08:34:55;-5.20;99.90
16511;DHT22;8368;48.772;8.754;2024-01-10T08:37:21;-5.20;99.90
16511;DHT22;8368;48.772;8.754;2024-01-10T08:39:47;-5.10;99.90
16511;DHT22;8368;48.772;8.754;2024-01-10T08:42:12;-5.00;99.90
16511;DHT22;8368;48.772;8.754;2024-01-10T08:44:38;-4.90;99.90
16511;DHT22;8368;48.772;8.754;2024-01-10T08:47:04;-4.90;99.90
16511;DHT22;8368;48.772;8.754;2024-01-10T08:49:29;-4.90;99.90
16511;DHT22;8368;48.772;8.754;2024-01-10T08:51:55;-4.80;99.90
16511;DHT22;8368;48.772;8.754;2024-01-10T08:54:20;-4.80;99.90
16511;DHT22;8368;48.772;8.754;2024-01-10T08:56:48;-4.70;99.90
16511;DHT22;8368;48.772;8.754;2024-01-10T08:59:13;-4.70;99.90
16511;DHT22;8368;48.772;8.754;2024-01-10T09:01:39;-4.60;99.90
16511;DHT22;8368;48.772;8.754;2024-01-10T09:04:05;-4.50;99.90
16511;DHT22;8368;48.772;8.754;2024-01-10T09:06:32;-4.40;99.90
16511;DHT22;8368;48.772;8.754;2024-01-10T09:08:58;-4.40;99.90
16511;DHT22;8368;48.772;8.754;2024-01-10T09:11:23;-4.30;99.90
16511;DHT22;8368;48.772;8.754;2024-01-10T09:13:50;-4.20;99.90
16511;DHT22;8368;48.772;8.754;2024-01-10T09:16:16;-4.10;99.90
16511;DHT22;8368;48.772;8.754;2024-01-10T09:18:44;-4.10;99.90
16511;DHT22;8368;48.772;8.754;2024-01-10T09:21:09;-4.10;99.90
16511;DHT22;8368;48.772;8.754;2024-01-10T09:23:35;-4.00;99.90
16511;DHT22;8368;48.772;8.754;2024-01-10T09:26:02;-3.90;99.90
16511;DHT22;8368;48.772;8.754;2024-01-10T09:28:28;-3.80;99.90
16511;DHT22;8368;48.772;8.754;2024-01-10T09:30:53;-3.70;99.90
16511;DHT22;8368;48.772;8.754;2024-01-10T09:33:19;-3.70;99.90
16511;DHT22;8368;48.772;8.754;2024-01-10T09:35:45;-3.70;99.90
16511;DHT22;8368;48.772;8.754;2024-01-10T09:38:10;-3.70;99.90
16511;DHT22;8368;48.772;8.754;2024-01-10T09:40:37;-3.60;99.90
16511;DHT22;8368;48.772;8.754;2024-01-10T09:43:04;-3.50;99.90
16511;DHT22;8368;48.772;8.754;2024-01-10T09:45:31;-3.50;99.90
16511;DHT22;8368;48.772;8.754;2024-01-10T09:48:00;-3.40;99.90
16511;DHT22;8368;48.772;8.754;2024-01-10T09:50:25;-3.40;99.90
16511;DHT22;8368;48.772;8.754;2024-01-10T09:52:51;-3.30;99.90
16511;DHT22;8368;48.772;8.754;2024-01-10T09:55:20;-3.30;99.90
16511;DHT22;8368;48.772;8.754;2024-01-10T09:57:46;-3.20;99.90
16511;DHT22;8368;48.772;8.754;2024-01-10T10:00:13;-3.20;99.90
16511;DHT22;8368;48.772;8.754;2024-01-10T10:02:40;-3.10;99.90
16511;DHT22;8368;48.772;8.754;2024-01-10T10:05:14;-3.20;99.90
16511;DHT22;8368;48.772;8.754;2024-01-10T10:07:48;-3.10;99.90
16511;DHT22;8368;48.772;8.754;2024-01-10T10:10:14;-3.00;99.90
16511;DHT22;8368;48.772;8.754;2024-01-10T10:12:53;-2.90;99.90
16511;DHT22;8368;48.772;8.754;2024-01-10T10:15:23;-2.80;99.90
16511;DHT22;8368;48.772;8.754;2024-01-10T10:17:52;-2.70;99.90
16511;DHT22;8368;48.772;8.754;2024-01-10T10:20:26;-2.60;99.90
16511;DHT22;8368;48.772;8.754;2024-01-10T10:23:07;-2.50;99.90
16511;DHT22;8368;48.772;8.754;2024-01-10T10:25:45;-2.40;99.90
16511;DHT22;8368;48.772;8.754;2024-01-10T10:28:12;-2.30;99.90
16511;DHT22;8368;48.772;8.754;2024-01-10T10:30:39;-2.20;99.90
16511;DHT22;8368;48.772;8.754;2024-01-10T10:33:05;-2.20;99.90
16511;DHT22;8368;48.772;8.754;2024-01-10T10:35:33;-2.10;99.90
16511;DHT22;8368;48.772;8.754;2024-01-10T10:37:59;-2.00;99.90
16511;DHT22;8368;48.772;8.754;2024-01-10T10:40:25;-1.90;99.90
16511;DHT22;8368;48.772;8.754;2024-01-10T10:42:57;-1.90;99.90
16511;DHT22;8368;48.772;8.754;2024-01-10T10:45:23;-1.90;99.90
16511;DHT22;8368;48.772;8.754;2024-01-10T10:47:57;-1.80;99.90
16511;DHT22;8368;48.772;8.754;2024-01-10T10:50:24;-1.70;99.90
16511;DHT22;8368;48.772;8.754;2024-01-10T10:52:51;-1.70;99.90
16511;DHT22;8368;48.772;8.754;2024-01-10T10:55:18;-1.70;99.90
16511;DHT22;8368;48.772;8.754;2024-01-10T10:57:50;-1.70;99.90
16511;DHT22;8368;48.772;8.754;2024-01-10T11:00:20;-1.70;99.90
16511;DHT22;8368;48.772;8.754;2024-01-10T11:02:47;-1.60;99.90
16511;DHT22;8368;48.772;8.754;2024-01-10T11:05:13;-1.60;99.90
16511;DHT22;8368;48.772;8.754;2024-01-10T11:07:40;-1.50;99.90
16511;DHT22;8368;48.772;8.754;2024-01-10T11:10:12;-1.50;99.90
16511;DHT22;8368;48.772;8.754;2024-01-10T11:18:21;-1.30;99.90
16511;DHT22;8368;48.772;8.754;2024-01-10T11:21:03;-1.20;99.90
16511;DHT22;8368;48.772;8.754;2024-01-10T11:26:06;-1.20;99.90
16511;DHT22;8368;48.772;8.754;2024-01-10T11:28:32;-1.20;99.90
16511;DHT22;8368;48.772;8.754;2024-01-10T11:30:59;-1.20;99.90
16511;DHT22;8368;48.772;8.754;2024-01-10T11:33:30;-1.10;99.90
16511;DHT22;8368;48.772;8.754;2024-01-10T11:36:15;-1.10;99.90
16511;DHT22;8368;48.772;8.754;2024-01-10T11:41:43;-1.10;99.90
16511;DHT22;8368;48.772;8.754;2024-01-10T11:46:46;-1.10;99.90
16511;DHT22;8368;48.772;8.754;2024-01-10T11:49:16;-1.10;99.90
16511;DHT22;8368;48.772;8.754;2024-01-10T11:51:43;-1.00;99.90
16511;DHT22;8368;48.772;8.754;2024-01-10T11:54:09;-1.00;99.90
16511;DHT22;8368;48.772;8.754;2024-01-10T11:56:42;-0.80;99.90
16511;DHT22;8368;48.772;8.754;2024-01-10T11:59:11;-0.90;99.90
16511;DHT22;8368;48.772;8.754;2024-01-10T12:01:38;-0.90;99.90
16511;DHT22;8368;48.772;8.754;2024-01-10T12:04:05;-0.90;99.90
16511;DHT22;8368;48.772;8.754;2024-01-10T12:06:31;-0.80;99.90
16511;DHT22;8368;48.772;8.754;2024-01-10T12:08:57;-0.80;99.90
16511;DHT22;8368;48.772;8.754;2024-01-10T12:11:23;-0.80;99.90
16511;DHT22;8368;48.772;8.754;2024-01-10T12:13:49;-0.80;99.90
16511;DHT22;8368;48.772;8.754;2024-01-10T12:16:15;-0.80;99.90
16511;DHT22;8368;48.772;8.754;2024-01-10T12:18:42;-0.70;99.90
16511;DHT22;8368;48.772;8.754;2024-01-10T12:21:07;-0.70;99.90
16511;DHT22;8368;48.772;8.754;2024-01-10T12:23:34;-0.70;99.90
16511;DHT22;8368;48.772;8.754;2024-01-10T12:26:04;-0.60;99.90
16511;DHT22;8368;48.772;8.754;2024-01-10T12:28:34;-0.50;99.90
16511;DHT22;8368;48.772;8.754;2024-01-10T12:31:01;-0.50;99.90
16511;DHT22;8368;48.772;8.754;2024-01-10T12:33:27;-0.50;99.90
16511;DHT22;8368;48.772;8.754;2024-01-10T12:36:11;-0.40;99.90
16511;DHT22;8368;48.772;8.754;2024-01-10T12:38:38;-0.50;99.90
16511;DHT22;8368;48.772;8.754;2024-01-10T12:41:05;-0.40;99.90
16511;DHT22;8368;48.772;8.754;2024-01-10T12:43:31;-0.40;99.90
16511;DHT22;8368;48.772;8.754;2024-01-10T12:46:07;-0.30;99.90
16511;DHT22;8368;48.772;8.754;2024-01-10T12:48:34;-0.30;99.90
16511;DHT22;8368;48.772;8.754;2024-01-10T12:51:03;-0.20;99.90
16511;DHT22;8368;48.772;8.754;2024-01-10T12:53:40;-0.20;99.90
16511;DHT22;8368;48.772;8.754;2024-01-10T12:56:07;-0.10;99.90
16511;DHT22;8368;48.772;8.754;2024-01-10T12:58:33;-0.10;99.90
16511;DHT22;8368;48.772;8.754;2024-01-10T13:01:00;-0.10;99.90
16511;DHT22;8368;48.772;8.754;2024-01-10T13:03:26;0.00;99.90
16511;DHT22;8368;48.772;8.754;2024-01-10T13:05:51;0.10;99.90
16511;DHT22;8368;48.772;8.754;2024-01-10T13:08:18;0.00;99.90
16511;DHT22;8368;48.772;8.754;2024-01-10T13:10:45;0.10;99.90
16511;DHT22;8368;48.772;8.754;2024-01-10T13:13:11;0.10;99.90
16511;DHT22;8368;48.772;8.754;2024-01-10T13:15:37;0.10;99.90
16511;DHT22;8368;48.772;8.754;2024-01-10T13:18:02;0.10;99.90
16511;DHT22;8368;48.772;8.754;2024-01-10T13:20:28;0.10;99.90
16511;DHT22;8368;48.772;8.754;2024-01-10T13:22:54;0.10;99.90
16511;DHT22;8368;48.772;8.754;2024-01-10T13:25:19;0.10;99.90
16511;DHT22;8368;48.772;8.754;2024-01-10T13:27:51;0.10;99.90
16511;DHT22;8368;48.772;8.754;2024-01-10T13:30:18;0.20;99.90
16511;DHT22;8368;48.772;8.754;2024-01-10T13:32:44;0.20;99.90
16511;DHT22;8368;48.772;8.754;2024-01-10T13:35:09;0.20;99.90
16511;DHT22;8368;48.772;8.754;2024-01-10T13:37:35;0.30;99.90
16511;DHT22;8368;48.772;8.754;2024-01-10T13:40:01;0.30;99.90
16511;DHT22;8368;48.772;8.754;2024-01-10T13:42:30;0.20;99.90
16511;DHT22;8368;48.772;8.754;2024-01-10T13:44:56;0.20;99.90
16511;DHT22;8368;48.772;8.754;2024-01-10T13:47:21;0.10;99.90
16511;DHT22;8368;48.772;8.754;2024-01-10T13:49:49;0.10;99.90
16511;DHT22;8368;48.772;8.754;2024-01-10T13:52:15;0.10;99.90
16511;DHT22;8368;48.772;8.754;2024-01-10T13:54:40;0.10;99.90
16511;DHT22;8368;48.772;8.754;2024-01-10T13:57:07;0.10;99.90
16511;DHT22;8368;48.772;8.754;2024-01-10T13:59:33;0.00;99.90
16511;DHT22;8368;48.772;8.754;2024-01-10T14:01:58;0.00;99.90
16511;DHT22;8368;48.772;8.754;2024-01-10T14:04:24;-0.10;99.90
16511;DHT22;8368;48.772;8.754;2024-01-10T14:06:50;0.00;99.90
16511;DHT22;8368;48.772;8.754;2024-01-10T14:09:16;-0.10;99.90
16511;DHT22;8368;48.772;8.754;2024-01-10T14:11:43;-0.10;99.90
16511;DHT22;8368;48.772;8.754;2024-01-10T14:14:10;-0.10;99.90
16511;DHT22;8368;48.772;8.754;2024-01-10T14:16:35;-0.10;99.90
16511;DHT22;8368;48.772;8.754;2024-01-10T14:19:01;-0.10;99.90
16511;DHT22;8368;48.772;8.754;2024-01-10T14:21:26;-0.10;99.90
16511;DHT22;8368;48.772;8.754;2024-01-10T14:23:52;-0.10;99.90
16511;DHT22;8368;48.772;8.754;2024-01-10T14:26:17;-0.10;99.90
16511;DHT22;8368;48.772;8.754;2024-01-10T14:28:43;-0.20;99.90
16511;DHT22;8368;48.772;8.754;2024-01-10T14:31:09;-0.20;99.90
16511;DHT22;8368;48.772;8.754;2024-01-10T14:33:39;-0.10;99.90
16511;DHT22;8368;48.772;8.754;2024-01-10T14:36:04;-0.10;99.90
16511;DHT22;8368;48.772;8.754;2024-01-10T14:38:30;-0.20;99.90
16511;DHT22;8368;48.772;8.754;2024-01-10T14:40:56;-0.20;99.90
16511;DHT22;8368;48.772;8.754;2024-01-10T14:43:21;-0.30;99.90
16511;DHT22;8368;48.772;8.754;2024-01-10T14:45:47;-0.30;99.90
16511;DHT22;8368;48.772;8.754;2024-01-10T14:48:14;-0.30;99.90
16511;DHT22;8368;48.772;8.754;2024-01-10T14:50:39;-0.30;99.90
16511;DHT22;8368;48.772;8.754;2024-01-10T14:53:05;-0.20;99.90
16511;DHT22;8368;48.772;8.754;2024-01-10T14:55:30;-0.30;99.90
16511;DHT22;8368;48.772;8.754;2024-01-10T14:57:56;-0.40;99.90
16511;DHT22;8368;48.772;8.754;2024-01-10T15:00:21;-0.40;99.90
16511;DHT22;8368;48.772;8.754;2024-01-10T15:02:47;-0.40;99.90
16511;DHT22;8368;48.772;8.754;2024-01-10T15:05:12;-0.40;99.90
16511;DHT22;8368;48.772;8.754;2024-01-10T15:07:38;-0.50;99.90
16511;DHT22;8368;48.772;8.754;2024-01-10T15:10:04;-0.60;99.90
16511;DHT22;8368;48.772;8.754;2024-01-10T15:12:30;-0.50;99.90
16511;DHT22;8368;48.772;8.754;2024-01-10T15:14:55;-0.60;99.90
16511;DHT22;8368;48.772;8.754;2024-01-10T15:17:25;-0.60;99.90
16511;DHT22;8368;48.772;8.754;2024-01-10T15:19:51;-0.60;99.90
16511;DHT22;8368;48.772;8.754;2024-01-10T15:22:16;-0.60;99.90
16511;DHT22;8368;48.772;8.754;2024-01-10T15:24:43;-0.60;99.90
16511;DHT22;8368;48.772;8.754;2024-01-10T15:27:09;-0.70;99.90
16511;DHT22;8368;48.772;8.754;2024-01-10T15:29:36;-0.80;99.90
16511;DHT22;8368;48.772;8.754;2024-01-10T15:32:03;-0.80;99.90
16511;DHT22;8368;48.772;8.754;2024-01-10T15:34:29;-0.90;99.90
16511;DHT22;8368;48.772;8.754;2024-01-10T15:36:55;-1.00;99.90
16511;DHT22;8368;48.772;8.754;2024-01-10T15:39:20;-1.00;99.90
16511;DHT22;8368;48.772;8.754;2024-01-10T15:41:53;-1.20;99.90
16511;DHT22;8368;48.772;8.754;2024-01-10T15:44:19;-1.30;99.90
16511;DHT22;8368;48.772;8.754;2024-01-10T15:46:44;-1.30;99.90
16511;DHT22;8368;48.772;8.754;2024-01-10T15:49:13;-1.30;99.90
16511;DHT22;8368;48.772;8.754;2024-01-10T15:51:39;-1.30;99.90
16511;DHT22;8368;48.772;8.754;2024-01-10T15:54:04;-1.30;99.90
16511;DHT22;8368;48.772;8.754;2024-01-10T15:56:30;-1.40;99.90